Time;durP1;ratioP1;P1;durP2;ratioP2;P2;SDS_P1;SDS_P2;PMS_P1;PMS_P2;Temp;Humidity;BMP_temperature;BMP_pressure;BME280_temperature;BME280_humidity;BME280_pressure;Samples;Min_cycle;Max_cycle;Signal;HPM_P1;HPM_P2
2022/04/19 00:00:28;;;;;;;8.10;6.32;;;9.10;80.90;;;;;;4462343;28;10001976;-72
2022/04/19 00:02:54;;;;;;;9.32;6.20;;;9.10;81.30;;;;;;5051080;28;20257;-72
2022/04/19 00:05:20;;;;;;;8.57;6.00;;;9.10;81.30;;;;;;5063208;28;20111;-72
2022/04/19 00:07:45;;;;;;;8.15;5.88;;;9.00;81.90;;;;;;5061183;28;20035;-72
2022/04/19 00:10:12;;;;;;;7.78;5.97;;;9.00;81.80;;;;;;5061159;28;20048;-72
2022/04/19 00:12:37;;;;;;;8.57;5.45;;;9.00;82.60;;;;;;5055536;28;20076;-72
2022/04/19 00:15:04;;;;;;;8.05;5.93;;;8.90;83.00;;;;;;5057042;28;20078;-72
2022/04/19 00:17:30;;;;;;;10.73;5.85;;;8.90;83.10;;;;;;5053182;28;20068;-72
2022/04/19 00:19:55;;;;;;;8.77;5.75;;;8.90;83.00;;;;;;5046427;28;20104;-72
2022/04/19 00:22:21;;;;;;;8.07;5.78;;;8.90;83.20;;;;;;5059007;28;20056;-72
2022/04/19 00:24:47;;;;;;;8.38;5.82;;;8.80;83.70;;;;;;5061653;28;20174;-72
2022/04/19 00:27:13;;;;;;;7.95;5.60;;;8.80;84.20;;;;;;5054738;28;20024;-72
2022/04/19 00:29:41;;;;;;;6.85;5.13;;;8.70;84.90;;;;;;5053190;28;20035;-72
2022/04/19 00:32:15;;;;;;;7.00;5.30;;;8.60;85.60;;;;;;5062993;28;20032;-73
2022/04/19 00:34:40;;;;;;;7.40;5.60;;;8.40;86.50;;;;;;5096684;28;20499;-73
2022/04/19 00:37:06;;;;;;;6.43;4.82;;;8.20;87.70;;;;;;5086135;28;20027;-73
2022/04/19 00:39:32;;;;;;;7.60;5.65;;;8.00;88.50;;;;;;5084448;28;20056;-72
2022/04/19 00:41:57;;;;;;;7.93;5.47;;;7.90;88.70;;;;;;5078489;28;20137;-72
2022/04/19 00:44:23;;;;;;;7.75;5.70;;;7.80;89.30;;;;;;5098359;28;20395;-72
2022/04/19 00:46:50;;;;;;;7.55;5.40;;;7.70;90.20;;;;;;5089116;28;20074;-72
2022/04/19 00:49:18;;;;;;;7.18;5.30;;;7.60;90.50;;;;;;5087915;28;20369;-72
2022/04/19 00:51:45;;;;;;;6.95;5.22;;;7.70;90.90;;;;;;5091928;28;20020;-72
2022/04/19 00:54:12;;;;;;;8.85;6.00;;;7.70;90.90;;;;;;5083748;28;20075;-71
2022/04/19 00:56:39;;;;;;;6.95;5.05;;;7.70;90.70;;;;;;5086259;28;20028;-72
2022/04/19 00:59:05;;;;;;;6.72;4.82;;;7.70;90.80;;;;;;5092283;28;20035;-72
2022/04/19 01:01:30;;;;;;;6.25;4.55;;;7.60;91.50;;;;;;5086341;28;20020;-72
2022/04/19 01:03:58;;;;;;;7.63;5.15;;;7.60;91.50;;;;;;5083780;28;20429;-72
2022/04/19 01:06:23;;;;;;;6.78;4.70;;;7.70;91.20;;;;;;5093017;28;20066;-72
2022/04/19 01:08:49;;;;;;;7.57;4.75;;;7.80;90.30;;;;;;5089327;28;20061;-72
2022/04/19 01:14:02;;;;;;;6.65;4.78;;;7.90;89.70;;;;;;5089636;28;20050;-72
2022/04/19 01:16:28;;;;;;;8.85;5.18;;;8.00;89.10;;;;;;5091115;28;20643;-72
2022/04/19 01:18:55;;;;;;;7.65;5.00;;;8.00;89.00;;;;;;5087883;28;20539;-72
2022/04/19 01:21:20;;;;;;;7.18;4.82;;;8.10;88.50;;;;;;5088842;28;20123;-73
2022/04/19 01:23:46;;;;;;;8.27;5.35;;;8.10;88.80;;;;;;5084911;28;20107;-72
2022/04/19 01:26:11;;;;;;;8.88;4.88;;;8.10;88.50;;;;;;5086603;28;20024;-72
2022/04/19 01:28:37;;;;;;;7.82;5.57;;;8.10;88.30;;;;;;5088034;28;20032;-73
2022/04/19 01:31:03;;;;;;;8.82;5.20;;;8.00;89.10;;;;;;5084955;28;20454;-72
2022/04/19 01:33:28;;;;;;;7.40;5.30;;;8.00;90.00;;;;;;5087752;28;20035;-73
2022/04/19 01:35:54;;;;;;;6.68;5.30;;;7.90;90.20;;;;;;5087789;28;20058;-73
2022/04/19 01:38:20;;;;;;;7.07;5.32;;;7.90;90.60;;;;;;5087480;28;20031;-73
2022/04/19 01:40:46;;;;;;;9.05;5.30;;;7.80;90.60;;;;;;5094841;28;20024;-72
2022/04/19 01:43:11;;;;;;;9.95;5.97;;;7.80;90.90;;;;;;5090686;28;20043;-73
2022/04/19 01:45:38;;;;;;;9.43;5.30;;;7.70;91.40;;;;;;5087423;28;20387;-73
2022/04/19 01:48:04;;;;;;;8.05;5.68;;;7.70;91.80;;;;;;5087176;28;20027;-73
2022/04/19 01:50:29;;;;;;;8.38;6.70;;;7.60;92.10;;;;;;5085976;28;20024;-73
2022/04/19 01:53:01;;;;;;;8.88;5.63;;;7.60;92.50;;;;;;5093337;28;20476;-72
2022/04/19 01:55:27;;;;;;;10.18;6.00;;;7.60;92.70;;;;;;5093642;28;20047;-72
2022/04/19 01:57:56;;;;;;;10.00;5.93;;;7.50;92.70;;;;;;5087725;28;20038;-72
2022/04/19 02:00:22;;;;;;;11.30;5.75;;;7.50;93.20;;;;;;5092296;28;20036;-72
2022/04/19 02:02:48;;;;;;;7.95;6.05;;;7.50;93.20;;;;;;5088011;28;20036;-72
2022/04/19 02:05:15;;;;;;;10.23;6.25;;;7.50;93.10;;;;;;5096476;28;20028;-72
2022/04/19 02:07:43;;;;;;;8.80;5.82;;;7.40;93.30;;;;;;5088034;28;20024;-71
2022/04/19 02:10:10;;;;;;;9.60;5.88;;;7.50;93.50;;;;;;5093685;28;20046;-72
2022/04/19 02:12:36;;;;;;;7.05;5.40;;;7.40;93.60;;;;;;5096726;28;20126;-71
2022/04/19 02:15:02;;;;;;;10.57;6.10;;;7.30;93.60;;;;;;5086970;28;20380;-72
2022/04/19 02:17:28;;;;;;;8.57;5.80;;;7.30;93.70;;;;;;5092941;28;20592;-72
2022/04/19 02:20:03;;;;;;;9.27;6.05;;;7.30;93.80;;;;;;5103500;28;20024;-72
2022/04/19 02:22:29;;;;;;;9.73;6.20;;;7.20;93.80;;;;;;5097062;28;20031;-72
2022/04/19 02:24:56;;;;;;;8.85;5.43;;;7.30;93.90;;;;;;5089777;28;20043;-72
2022/04/19 02:27:24;;;;;;;9.43;5.88;;;7.30;94.20;;;;;;5087316;28;20468;-72
2022/04/19 02:29:54;;;;;;;9.82;6.05;;;7.20;94.30;;;;;;5099799;28;20487;-72
2022/04/19 02:32:20;;;;;;;7.90;6.18;;;7.20;94.50;;;;;;5095625;28;20032;-72
2022/04/19 02:34:47;;;;;;;6.82;5.47;;;7.20;94.90;;;;;;5091495;28;20328;-72
2022/04/19 02:37:13;;;;;;;7.57;5.90;;;7.20;95.10;;;;;;5083632;28;20059;-72
2022/04/19 02:39:38;;;;;;;10.63;6.35;;;7.10;95.30;;;;;;5080504;28;20059;-72
2022/04/19 02:42:04;;;;;;;10.23;6.20;;;7.10;95.40;;;;;;5090195;28;20360;-72
2022/04/19 02:44:30;;;;;;;10.18;6.07;;;7.10;95.70;;;;;;5083233;28;20055;-72
2022/04/19 02:46:56;;;;;;;10.30;6.53;;;7.00;95.80;;;;;;5095194;28;20492;-73
2022/04/19 02:49:21;;;;;;;9.35;5.88;;;7.10;95.90;;;;;;5087055;28;20500;-73
2022/04/19 02:51:47;;;;;;;7.93;5.70;;;7.10;95.90;;;;;;5086185;28;20019;-72
2022/04/19 02:54:13;;;;;;;8.90;5.93;;;7.10;95.80;;;;;;5082705;28;20028;-73
2022/04/19 02:56:39;;;;;;;10.35;6.60;;;7.00;95.90;;;;;;5089784;28;20031;-73
2022/04/19 02:59:04;;;;;;;10.10;6.35;;;7.00;96.00;;;;;;5084302;28;20035;-72
2022/04/19 03:01:30;;;;;;;10.68;6.68;;;7.00;96.20;;;;;;5095840;28;20028;-72
2022/04/19 03:03:57;;;;;;;11.40;6.00;;;7.00;96.40;;;;;;5087210;28;20035;-72
2022/04/19 03:06:23;;;;;;;9.30;6.32;;;7.00;96.60;;;;;;5098218;28;20049;-72
2022/04/19 03:08:49;;;;;;;12.57;6.38;;;7.00;96.80;;;;;;5092036;28;20383;-72
2022/04/19 03:11:15;;;;;;;9.00;6.10;;;6.90;97.00;;;;;;5097844;28;20036;-72
2022/04/19 03:13:41;;;;;;;10.52;6.40;;;6.90;97.20;;;;;;5101159;28;20023;-72
2022/04/19 03:16:06;;;;;;;8.52;5.78;;;6.80;97.40;;;;;;5094655;28;20490;-72
2022/04/19 03:18:32;;;;;;;10.18;6.20;;;6.80;97.50;;;;;;5090400;28;20048;-72
2022/04/19 03:20:58;;;;;;;9.25;6.32;;;6.80;97.60;;;;;;5096884;28;20111;-72
2022/04/19 03:28:53;;;;;;;12.00;6.07;;;6.70;98.00;;;;;;5085439;28;20562;-72
2022/04/19 03:31:22;;;;;;;10.15;5.97;;;6.70;98.10;;;;;;5087136;28;20044;-72
2022/04/19 03:33:54;;;;;;;10.10;6.10;;;6.70;98.10;;;;;;5090931;28;20024;-72
2022/04/19 03:36:21;;;;;;;8.25;6.07;;;6.70;98.20;;;;;;5094452;28;20500;-72
2022/04/19 03:38:46;;;;;;;7.60;6.00;;;6.70;98.30;;;;;;5100810;28;20031;-72
2022/04/19 03:41:13;;;;;;;8.60;6.50;;;6.70;98.40;;;;;;5090138;28;20028;-72
2022/04/19 03:43:38;;;;;;;9.18;6.30;;;6.70;98.50;;;;;;5095826;28;20035;-72
2022/04/19 03:46:05;;;;;;;10.60;6.03;;;6.60;98.60;;;;;;5092828;28;20035;-72
2022/04/19 03:48:32;;;;;;;11.48;6.15;;;6.60;98.90;;;;;;5093433;28;20023;-72
2022/04/19 03:50:58;;;;;;;10.73;6.43;;;6.60;99.10;;;;;;5096319;28;20096;-72
2022/04/19 03:53:23;;;;;;;10.90;6.10;;;6.60;99.30;;;;;;5087584;28;20472;-72
2022/04/19 03:55:49;;;;;;;12.13;6.00;;;6.60;99.50;;;;;;5089531;28;20112;-72
2022/04/19 03:58:14;;;;;;;9.93;6.50;;;6.50;99.70;;;;;;5092785;28;20095;-72
2022/04/19 04:00:40;;;;;;;9.90;6.72;;;6.50;99.80;;;;;;5096454;28;20061;-73
2022/04/19 04:03:06;;;;;;;9.65;6.65;;;6.50;99.90;;;;;;5099178;28;20024;-72
2022/04/19 04:05:32;;;;;;;9.20;6.15;;;6.50;99.90;;;;;;5089397;28;20141;-72
2022/04/19 04:07:58;;;;;;;10.70;6.68;;;6.50;99.90;;;;;;5093397;28;20023;-72
2022/04/19 04:10:24;;;;;;;11.32;6.22;;;6.40;99.90;;;;;;5093682;28;20015;-72
2022/04/19 04:12:50;;;;;;;8.40;6.15;;;6.50;99.90;;;;;;5100151;28;20038;-72
2022/04/19 04:15:15;;;;;;;11.02;6.60;;;6.50;99.90;;;;;;5083524;28;20067;-72
2022/04/19 04:17:41;;;;;;;10.98;6.07;;;6.50;99.90;;;;;;5093547;28;20101;-72
2022/04/19 04:20:07;;;;;;;9.15;6.72;;;6.40;99.90;;;;;;5105145;28;20107;-73
2022/04/19 04:22:33;;;;;;;11.57;6.65;;;6.30;99.90;;;;;;5088173;28;20044;-71
2022/04/19 04:24:58;;;;;;;9.27;6.82;;;6.10;99.90;;;;;;5082936;28;20051;-72
2022/04/19 04:27:24;;;;;;;9.35;7.10;;;5.90;99.90;;;;;;5087444;28;20032;-72
2022/04/19 04:29:50;;;;;;;8.15;6.60;;;5.70;99.90;;;;;;5093289;28;20518;-71
2022/04/19 04:32:16;;;;;;;8.60;6.22;;;5.60;99.90;;;;;;5087265;28;20258;-71
2022/04/19 04:34:42;;;;;;;9.32;6.57;;;5.60;99.90;;;;;;5087571;28;20031;-72
2022/04/19 04:37:07;;;;;;;8.15;6.15;;;5.50;99.90;;;;;;5086749;28;20090;-72
2022/04/19 04:39:33;;;;;;;8.70;6.50;;;5.40;99.90;;;;;;5102236;28;20045;-71
2022/04/19 04:41:59;;;;;;;8.48;6.22;;;5.40;99.90;;;;;;5088375;28;20434;-72
2022/04/19 04:44:24;;;;;;;8.38;6.18;;;5.40;99.90;;;;;;5085909;28;20036;-72
2022/04/19 04:49:37;;;;;;;9.77;6.70;;;5.40;99.90;;;;;;5090699;28;20062;-71
2022/04/19 04:52:10;;;;;;;12.50;6.80;;;5.40;99.90;;;;;;5089701;28;20027;-72
2022/04/19 04:54:38;;;;;;;9.48;6.97;;;5.40;99.90;;;;;;5089997;28;20609;-72
2022/04/19 04:57:04;;;;;;;20.05;13.00;;;5.30;99.90;;;;;;4365458;28;10001545;-72
2022/04/19 04:59:32;;;;;;;17.10;11.35;;;5.30;99.90;;;;;;5061610;28;20476;-72
2022/04/19 05:01:58;;;;;;;14.73;9.75;;;5.20;99.90;;;;;;5061007;28;20894;-72
2022/04/19 05:04:24;;;;;;;14.25;9.00;;;5.20;99.90;;;;;;5060507;28;20029;-71
2022/04/19 05:06:50;;;;;;;11.73;8.60;;;5.20;99.90;;;;;;5064898;28;20036;-71
2022/04/19 05:09:15;;;;;;;11.80;8.45;;;5.10;99.90;;;;;;5081084;28;20066;-72
2022/04/19 05:11:41;;;;;;;11.77;8.90;;;5.10;99.90;;;;;;5062142;28;20087;-72
2022/04/19 05:14:08;;;;;;;11.88;7.93;;;5.10;99.90;;;;;;5060516;28;20047;-72
2022/04/19 05:16:36;;;;;;;11.07;8.35;;;5.10;99.90;;;;;;5062295;28;20024;-72
2022/04/19 05:19:03;;;;;;;11.55;7.75;;;5.20;99.90;;;;;;5065003;28;20086;-72
2022/04/19 05:21:28;;;;;;;10.65;7.60;;;5.20;99.90;;;;;;5066247;28;20118;-72
2022/04/19 05:23:55;;;;;;;8.88;7.43;;;5.20;99.90;;;;;;5071190;28;20036;-72
2022/04/19 05:26:21;;;;;;;10.88;7.10;;;5.20;99.90;;;;;;5067058;28;20094;-72
2022/04/19 05:28:47;;;;;;;9.90;7.28;;;5.20;99.90;;;;;;5066147;28;20136;-72
2022/04/19 05:31:13;;;;;;;9.52;7.00;;;5.20;99.90;;;;;;5093305;28;20550;-72
2022/04/19 05:33:38;;;;;;;9.27;7.05;;;5.20;99.90;;;;;;5094732;28;20028;-73
2022/04/19 05:36:04;;;;;;;10.50;7.88;;;5.20;99.90;;;;;;5087940;28;20390;-72
2022/04/19 05:38:30;;;;;;;9.07;6.65;;;5.40;99.90;;;;;;5095810;28;20023;-72
2022/04/19 05:40:56;;;;;;;14.43;7.30;;;5.40;99.90;;;;;;5097231;28;20031;-71
2022/04/19 05:43:22;;;;;;;9.90;7.35;;;5.40;99.90;;;;;;5082610;28;20055;-72
2022/04/19 05:45:47;;;;;;;9.25;7.13;;;5.40;99.90;;;;;;5081013;28;20684;-72
2022/04/19 05:48:13;;;;;;;11.18;7.18;;;5.40;99.90;;;;;;5083816;28;20025;-72
2022/04/19 05:50:39;;;;;;;10.70;7.18;;;5.40;99.90;;;;;;5082999;28;20092;-71
2022/04/19 05:53:05;;;;;;;9.48;7.20;;;5.40;99.90;;;;;;5091664;28;20392;-72
2022/04/19 05:55:32;;;;;;;10.27;7.80;;;5.40;99.90;;;;;;5087248;28;20027;-71
2022/04/19 05:57:58;;;;;;;11.15;8.50;;;5.50;99.90;;;;;;5100019;28;20039;-72
2022/04/19 06:00:24;;;;;;;15.00;10.38;;;5.60;99.90;;;;;;5089723;28;20089;-72
2022/04/19 06:05:34;;;;;;;15.45;10.38;;;5.70;99.90;;;;;;5083273;28;20062;-72
2022/04/19 06:08:00;;;;;;;15.48;11.13;;;5.80;99.90;;;;;;5098094;28;20052;-72
2022/04/19 06:10:26;;;;;;;19.88;12.52;;;5.80;99.90;;;;;;5092635;28;20047;-72
2022/04/19 06:12:51;;;;;;;18.73;11.65;;;5.90;99.90;;;;;;5093911;28;20683;-72
2022/04/19 06:15:17;;;;;;;17.55;11.30;;;5.90;99.90;;;;;;5082134;28;20039;-72
2022/04/19 06:17:43;;;;;;;12.93;8.93;;;5.90;99.90;;;;;;5099758;28;20035;-72
2022/04/19 06:20:09;;;;;;;12.05;8.50;;;6.00;99.90;;;;;;5093513;28;20052;-72
2022/04/19 06:22:35;;;;;;;9.90;7.95;;;6.10;99.90;;;;;;5102722;28;20050;-72
2022/04/19 06:25:01;;;;;;;13.35;8.02;;;6.10;99.90;;;;;;5087285;28;20468;-72
2022/04/19 06:27:27;;;;;;;10.73;8.15;;;6.20;99.90;;;;;;5094503;28;20160;-72
2022/04/19 06:29:53;;;;;;;10.88;7.88;;;6.30;99.90;;;;;;5090582;28;20091;-73
2022/04/19 06:32:19;;;;;;;9.90;7.88;;;6.40;99.90;;;;;;5092842;28;20720;-73
2022/04/19 06:34:45;;;;;;;10.27;7.38;;;6.50;99.90;;;;;;5086553;28;20028;-73
2022/04/19 06:37:11;;;;;;;9.85;7.10;;;6.70;99.90;;;;;;5094039;28;20411;-72
2022/04/19 06:39:37;;;;;;;10.40;7.32;;;6.80;99.90;;;;;;5098569;28;20513;-73
2022/04/19 06:42:03;;;;;;;10.10;7.75;;;6.90;99.90;;;;;;5103773;28;20036;-73
2022/04/19 06:44:29;;;;;;;8.98;7.60;;;7.00;99.90;;;;;;5102999;28;20035;-73
2022/04/19 06:46:54;;;;;;;10.40;7.47;;;7.20;99.90;;;;;;5100733;28;20084;-73
2022/04/19 06:49:20;;;;;;;8.88;6.97;;;7.40;99.90;;;;;;5095782;28;20316;-73
2022/04/19 06:51:45;;;;;;;13.55;8.57;;;7.60;99.90;;;;;;5099585;28;20391;-72
2022/04/19 06:54:15;;;;;;;10.38;7.78;;;7.90;99.90;;;;;;5090266;28;20112;-73
2022/04/19 06:56:41;;;;;;;10.25;6.90;;;8.20;99.90;;;;;;5089392;28;20250;-73
2022/04/19 06:59:08;;;;;;;10.15;7.55;;;8.50;99.90;;;;;;5084267;28;20035;-72
2022/04/19 07:01:35;;;;;;;10.38;7.57;;;8.70;99.90;;;;;;5090399;28;20373;-72
2022/04/19 07:04:01;;;;;;;10.43;7.75;;;9.00;99.90;;;;;;5096132;28;20031;-72
2022/04/19 07:06:27;;;;;;;13.20;8.18;;;9.20;99.90;;;;;;5093812;28;20523;-72
2022/04/19 07:08:52;;;;;;;14.27;8.27;;;9.60;99.90;;;;;;5096473;28;20023;-72
2022/04/19 07:11:18;;;;;;;13.30;8.40;;;9.80;99.90;;;;;;5092000;28;20032;-72
2022/04/19 07:13:44;;;;;;;11.85;8.32;;;10.10;99.90;;;;;;5096033;28;20036;-73
2022/04/19 07:16:09;;;;;;;10.57;8.00;;;10.20;99.90;;;;;;5094981;28;20032;-72
2022/04/19 07:18:35;;;;;;;12.13;8.40;;;;;;;;;;5089797;28;20525;-72
2022/04/19 07:26:40;;;;;;;13.00;8.30;;;;;;;;;;5088328;28;20503;-72
2022/04/19 07:29:10;;;;;;;12.30;7.82;;;11.70;99.90;;;;;;5098106;28;20436;-73
2022/04/19 07:31:38;;;;;;;13.00;7.78;;;11.80;99.90;;;;;;5091422;28;20561;-72
2022/04/19 07:34:03;;;;;;;14.57;8.70;;;11.70;99.90;;;;;;5089732;28;20479;-72
2022/04/19 07:36:29;;;;;;;11.27;8.25;;;11.60;99.90;;;;;;5086534;28;20346;-72
2022/04/19 07:38:57;;;;;;;13.00;7.70;;;11.60;99.90;;;;;;5089765;28;20482;-72
2022/04/19 07:41:24;;;;;;;13.60;8.82;;;11.60;99.90;;;;;;5095736;28;20042;-72
2022/04/19 07:43:50;;;;;;;19.75;9.15;;;11.60;99.90;;;;;;5085267;28;20274;-73
2022/04/19 07:46:16;;;;;;;17.25;8.80;;;11.60;99.90;;;;;;5103948;28;20433;-72
2022/04/19 07:48:47;;;;;;;13.38;8.50;;;11.50;99.90;;;;;;5089497;28;20022;-72
2022/04/19 07:51:14;;;;;;;15.55;8.90;;;11.50;99.90;;;;;;5087263;28;20055;-72
2022/04/19 07:53:40;;;;;;;14.23;9.20;;;11.50;99.90;;;;;;5084210;28;20116;-72
2022/04/19 07:56:06;;;;;;;14.35;8.32;;;11.50;99.90;;;;;;5100582;28;20065;-73
2022/04/19 07:58:32;;;;;;;17.55;8.73;;;11.50;99.90;;;;;;5090917;28;20518;-73
2022/04/19 08:00:57;;;;;;;17.13;8.30;;;11.60;99.90;;;;;;5088345;28;20032;-74
2022/04/19 08:03:23;;;;;;;12.25;7.70;;;11.70;99.90;;;;;;5096684;28;20035;-74
2022/04/19 08:05:50;;;;;;;13.88;7.65;;;11.70;99.90;;;;;;5101225;28;20047;-73
2022/04/19 08:08:18;;;;;;;13.23;8.18;;;11.80;99.90;;;;;;5095101;28;20106;-72
2022/04/19 08:10:44;;;;;;;13.93;7.07;;;11.90;99.90;;;;;;5089338;28;20025;-72
2022/04/19 08:13:10;;;;;;;12.80;7.45;;;11.90;99.90;;;;;;5086835;28;20028;-72
2022/04/19 08:15:35;;;;;;;13.70;7.10;;;12.10;99.90;;;;;;5087285;28;20034;-74
2022/04/19 08:18:01;;;;;;;15.82;7.72;;;;;;;;;;5090915;28;20081;-74
2022/04/19 08:20:27;;;;;;;10.75;6.80;;;;;;;;;;5099764;28;20041;-73
2022/04/19 08:22:53;;;;;;;11.45;6.15;;;;;;;;;;5088795;28;20061;-74
2022/04/19 08:25:19;;;;;;;10.93;5.80;;;;;;;;;;5084111;28;20176;-74
2022/04/19 08:27:46;;;;;;;9.70;5.55;;;;;;;;;;5101425;28;20216;-73
2022/04/19 08:30:12;;;;;;;12.18;5.68;;;;;;;;;;5090601;28;20036;-74
2022/04/19 08:32:39;;;;;;;12.07;5.35;;;;;;;;;;5096441;28;20030;-73
2022/04/19 08:35:05;;;;;;;7.85;5.03;;;;;;;;;;5104811;28;20023;-73
2022/04/19 08:37:32;;;;;;;7.20;5.22;;;;;;;;;;5090061;28;20118;-74
2022/04/19 08:39:58;;;;;;;9.15;4.60;;;;;;;;;;5089823;28;20051;-74
2022/04/19 08:42:29;;;;;;;7.70;4.35;;;;;;;;;;5091734;28;20024;-74
2022/04/19 08:44:55;;;;;;;7.25;4.72;;;;;;;;;;5088427;28;20438;-74
2022/04/19 08:47:23;;;;;;;5.43;4.38;;;;;;;;;;5091714;28;20414;-74
2022/04/19 08:49:49;;;;;;;6.85;4.40;;;;;;;;;;5090073;28;20020;-74
2022/04/19 08:52:15;;;;;;;8.70;4.45;;;;;;;;;;5093516;28;20031;-73
2022/04/19 08:57:31;;;;;;;8.18;4.35;;;;;;;;;;5096707;28;20043;-74
2022/04/19 09:00:01;;;;;;;6.13;4.07;;;;;;;;;;5084878;28;20480;-74
2022/04/19 09:02:31;;;;;;;5.93;4.10;;;;;;;;;;5089452;28;20038;-73
2022/04/19 09:05:17;;;;;;;6.45;4.13;;;;;;;;;;5092603;28;20066;-74
2022/04/19 09:07:47;;;;;;;5.25;3.95;;;;;;;;;;5090676;28;20490;-73
2022/04/19 09:10:17;;;;;;;5.13;4.20;;;;;;;;;;5089642;28;20327;-73
2022/04/19 09:12:59;;;;;;;5.53;3.78;;;;;;;;;;5090454;28;20021;-75
2022/04/19 09:15:31;;;;;;;7.32;4.18;;;;;;;;;;5101589;28;20027;-74
2022/04/19 09:17:57;;;;;;;5.38;4.10;;;;;;;;;;5096649;28;20110;-73
2022/04/19 09:20:23;;;;;;;5.00;4.15;;;;;;;;;;5091336;28;20031;-73
2022/04/19 09:23:00;;;;;;;5.13;3.90;;;;;;;;;;5091490;28;20180;-73
2022/04/19 09:25:26;;;;;;;7.57;4.20;;;;;;;;;;5091891;28;20023;-73
2022/04/19 09:27:56;;;;;;;10.13;4.60;;;;;;;;;;5099787;28;20028;-73
2022/04/19 09:30:24;;;;;;;5.30;3.45;;;;;;;;;;5091014;28;20381;-72
2022/04/19 09:33:02;;;;;;;5.65;3.97;;;;;;;;;;5094715;28;20111;-73
2022/04/19 09:35:29;;;;;;;5.25;3.60;;;;;;;;;;5082623;28;20039;-74
2022/04/19 09:37:55;;;;;;;4.78;3.80;;;;;;;;;;5090926;28;20020;-75
2022/04/19 09:40:32;;;;;;;5.93;3.92;;;;;;;;;;5092705;28;20032;-74
2022/04/19 09:42:58;;;;;;;4.72;3.47;;;;;;;;;;5091801;28;20028;-73
2022/04/19 09:45:28;;;;;;;6.78;3.47;;;;;;;;;;5089031;28;20071;-73
2022/04/19 09:47:54;;;;;;;6.38;3.47;;;;;;;;;;5089508;28;20420;-74
2022/04/19 09:50:21;;;;;;;5.28;3.20;;;;;;;;;;5089189;28;20016;-74
2022/04/19 09:52:50;;;;;;;3.88;3.00;;;;;;;;;;5087945;28;20494;-73
2022/04/19 09:55:16;;;;;;;4.88;2.83;;;;;;;;;;5081786;28;20507;-73
2022/04/19 09:57:47;;;;;;;6.15;3.00;;;;;;;;;;5093393;28;20046;-73
2022/04/19 10:00:15;;;;;;;3.70;2.85;;;;;;;;;;5100171;28;20409;-73
2022/04/19 10:08:13;;;;;;;3.15;2.33;;;;;;;;;;5095681;28;20211;-75
2022/04/19 10:10:39;;;;;;;4.45;2.28;;;;;;;;;;5092219;28;20816;-74
2022/04/19 10:13:06;;;;;;;3.45;2.00;;;;;;;;;;5093820;28;20032;-74
2022/04/19 10:15:36;;;;;;;5.97;2.22;;;;;;;;;;5101867;28;20036;-73
2022/04/19 10:18:05;;;;;;;3.83;1.70;;;;;;;;;;5090096;28;20189;-73
2022/04/19 10:20:32;;;;;;;3.45;2.28;;;;;;;;;;5099962;28;20067;-74
2022/04/19 10:23:08;;;;;;;3.45;1.80;;;;;;;;;;5091801;28;20144;-73
2022/04/19 10:25:44;;;;;;;2.22;1.80;;;;;;;;;;5093009;28;20046;-74
2022/04/19 10:28:14;;;;;;;2.22;1.75;;;;;;;;;;5092322;28;20544;-73
2022/04/19 10:30:51;;;;;;;1.67;1.50;;;;;;;;;;5097533;28;20144;-74
2022/04/19 10:33:35;;;;;;;4.50;2.25;;;;;;;;;;5099152;28;20039;-74
2022/04/19 10:36:14;;;;;;;2.63;1.83;;;;;;;;;;5090420;28;20062;-74
2022/04/19 10:38:41;;;;;;;3.78;1.70;;;;;;;;;;5089462;28;20032;-74
2022/04/19 10:41:07;;;;;;;2.28;1.35;;;;;;;;;;5090945;28;20339;-73
2022/04/19 10:43:33;;;;;;;1.92;1.10;;;;;;;;;;5091993;28;20020;-74
2022/04/19 10:46:18;;;;;;;5.18;1.10;;;;;;;;;;5097705;28;20020;-73
2022/04/19 10:49:10;;;;;;;2.35;1.08;;;;;;;;;;5100063;28;20046;-74
2022/04/19 10:51:36;;;;;;;0.90;0.80;;;;;;;;;;5067278;28;20039;-74
2022/04/19 10:54:02;;;;;;;3.22;1.08;;;;;;;;;;5095623;28;20028;-74
2022/04/19 10:56:28;;;;;;;1.25;0.85;;;;;;;;;;5088081;28;20110;-75
2022/04/19 10:58:54;;;;;;;1.35;0.50;;;;;;;;;;5085785;28;20024;-74
2022/04/19 11:01:32;;;;;;;0.70;0.50;;;;;;;;;;5092287;28;20514;-74
2022/04/19 11:03:59;;;;;;;0.82;0.50;;;;;;;;;;5089977;28;20019;-74
2022/04/19 11:06:32;;;;;;;0.50;0.50;;;;;;;;;;5107407;28;20024;-74
2022/04/19 11:08:58;;;;;;;;;;;;;;;;;;5100614;28;20027;-75
2022/04/19 11:11:25;;;;;;;0.65;0.50;;;;;;;;;;5089433;28;19912;-74
2022/04/19 11:14:10;;;;;;;1.23;0.40;;;;;;;;;;5090512;28;20065;-74
2022/04/19 11:16:37;;;;;;;0.35;0.30;;;;;;;;;;5097321;28;20451;-74
2022/04/19 11:19:13;;;;;;;1.83;0.40;;;;;;;;;;5088687;28;20172;-75
2022/04/19 11:21:46;;;;;;;0.85;0.50;;;;;;;;;;5090858;28;20231;-75
2022/04/19 11:24:12;;;;;;;2.10;0.68;;;;;;;;;;5103735;28;20054;-74
2022/04/19 11:26:42;;;;;;;1.73;0.50;;;;;;;;;;5087006;28;20407;-74
2022/04/19 11:29:10;;;;;;;1.00;0.50;;;;;;;;;;5089811;28;20072;-75
2022/04/19 11:31:46;;;;;;;0.65;0.60;;;;;;;;;;5101158;28;20118;-75
2022/04/19 11:34:12;;;;;;;0.60;0.52;;;;;;;;;;5100959;28;20043;-74
2022/04/19 11:36:38;;;;;;;2.78;0.68;;;;;;;;;;5086432;28;20108;-74
2022/04/19 11:39:04;;;;;;;0.70;0.60;;;;;;;;;;5089726;28;20511;-74
2022/04/19 11:46:48;;;;;;;2.15;0.60;;;;;;;;;;5092850;28;20037;-74
2022/04/19 11:49:20;;;;;;;1.25;0.80;;;;;;;;;;5096093;28;20023;-73
2022/04/19 11:52:00;;;;;;;0.88;0.88;;;;;;;;;;5089237;28;20066;-73
2022/04/19 11:54:30;;;;;;;1.27;0.95;;;;;;;;;;5085944;28;20027;-72
2022/04/19 11:57:00;;;;;;;1.17;0.70;;;14.80;71.70;;;;;;5089318;28;20504;-73
2022/04/19 11:59:29;;;;;;;3.25;0.77;;;14.80;70.40;;;;;;5093493;28;20076;-73
2022/04/19 12:01:56;;;;;;;1.55;1.00;;;14.70;70.10;;;;;;5086921;28;20060;-74
2022/04/19 12:04:22;;;;;;;1.42;1.00;;;14.80;72.00;;;;;;5098566;28;20035;-74
2022/04/19 12:06:52;;;;;;;2.40;1.20;;;14.70;70.80;;;;;;5104388;28;20055;-74
2022/04/19 12:09:19;;;;;;;3.45;1.30;;;14.90;72.50;;;;;;5101298;28;20024;-74
2022/04/19 12:11:46;;;;;;;3.05;1.05;;;15.00;69.80;;;;;;5100411;28;20028;-74
2022/04/19 12:14:26;;;;;;;1.25;1.10;;;14.90;66.90;;;;;;5102857;28;20055;-74
2022/04/19 12:16:59;;;;;;;4.13;1.20;;;14.90;71.60;;;;;;5091047;28;20023;-74
2022/04/19 12:19:39;;;;;;;2.58;1.10;;;14.90;70.20;;;;;;5094802;28;20028;-73
2022/04/19 12:22:22;;;;;;;1.33;1.20;;;14.90;70.60;;;;;;5087901;28;20036;-74
2022/04/19 12:24:49;;;;;;;1.98;1.17;;;14.90;68.70;;;;;;5083781;28;20324;-74
2022/04/19 12:27:15;;;;;;;1.58;1.02;;;15.00;68.20;;;;;;5101786;28;20080;-74
2022/04/19 12:30:01;;;;;;;3.20;1.27;;;15.10;68.30;;;;;;5087486;28;20020;-74
2022/04/19 12:32:48;;;;;;;1.77;1.10;;;15.30;68.50;;;;;;5088413;28;20229;-74
2022/04/19 12:35:14;;;;;;;2.00;1.33;;;15.20;66.80;;;;;;5098941;28;20380;-75
2022/04/19 12:37:39;;;;;;;1.75;1.10;;;15.40;68.20;;;;;;5091769;28;20088;-74
2022/04/19 12:40:07;;;;;;;2.10;1.20;;;15.60;66.80;;;;;;5097093;28;20069;-74
2022/04/19 12:42:53;;;;;;;1.45;1.20;;;15.80;69.20;;;;;;5088920;28;20024;-74
2022/04/19 12:45:19;;;;;;;3.30;1.55;;;16.10;65.30;;;;;;5084906;28;20100;-74
2022/04/19 12:47:47;;;;;;;1.40;1.17;;;16.20;65.00;;;;;;5094345;28;20105;-74
2022/04/19 12:50:19;;;;;;;1.88;1.20;;;16.20;65.40;;;;;;5087003;28;20071;-74
2022/04/19 12:52:46;;;;;;;1.27;1.13;;;16.30;63.60;;;;;;5089187;28;21147;-74
2022/04/19 12:55:12;;;;;;;1.92;1.10;;;16.60;88.60;;;;;;5086497;28;20047;-74
2022/04/19 12:57:40;;;;;;;2.45;1.30;;;16.90;74.10;;;;;;5087599;28;20092;-75
2022/04/19 13:00:09;;;;;;;2.30;1.38;;;16.60;72.70;;;;;;5086928;28;20032;-75
2022/04/19 13:02:39;;;;;;;4.38;1.40;;;16.50;73.20;;;;;;5099214;28;20115;-75
2022/04/19 13:05:06;;;;;;;2.83;1.20;;;16.50;71.10;;;;;;5090220;28;20028;-75
2022/04/19 13:13:07;;;;;;;2.25;1.30;;;16.50;67.80;;;;;;5057967;28;20127;-74
2022/04/19 13:15:36;;;;;;;2.33;1.52;;;16.20;70.10;;;;;;5092521;28;20122;-75
2022/04/19 13:18:02;;;;;;;1.40;1.30;;;16.10;71.50;;;;;;5099513;28;20032;-75
2022/04/19 13:20:28;;;;;;;5.40;1.55;;;16.20;72.00;;;;;;5087288;28;20470;-76
2022/04/19 13:22:54;;;;;;;1.92;1.48;;;16.40;66.00;;;;;;5094496;28;20484;-75
2022/04/19 13:25:20;;;;;;;2.58;1.80;;;16.50;81.30;;;;;;5085614;28;20035;-75
2022/04/19 13:27:47;;;;;;;3.53;1.85;;;16.40;82.10;;;;;;5089884;28;20073;-74
2022/04/19 13:30:13;;;;;;;3.72;1.70;;;16.30;81.90;;;;;;5088876;28;20056;-75
2022/04/19 13:32:39;;;;;;;2.08;1.70;;;16.20;80.80;;;;;;5090469;28;20244;-75
2022/04/19 13:35:06;;;;;;;3.42;1.67;;;16.30;79.10;;;;;;5085078;28;20020;-75
2022/04/19 13:40:19;;;;;;;2.25;1.60;;;16.50;79.60;;;;;;5086706;28;20085;-76
2022/04/19 13:42:45;;;;;;;2.15;1.77;;;16.60;76.90;;;;;;5090995;28;20081;-75
2022/04/19 13:45:10;;;;;;;2.13;1.70;;;16.50;76.80;;;;;;5098420;28;20023;-75
2022/04/19 13:47:36;;;;;;;3.50;1.55;;;16.30;77.00;;;;;;5087880;28;20016;-75
2022/04/19 13:50:03;;;;;;;3.30;1.30;;;16.10;79.60;;;;;;5085619;28;20120;-75
2022/04/19 13:52:29;;;;;;;3.85;1.50;;;16.00;81.70;;;;;;5084309;28;20024;-75
2022/04/19 13:54:55;;;;;;;2.55;1.35;;;16.00;82.30;;;;;;5088387;28;20450;-75
2022/04/19 13:57:20;;;;;;;3.88;1.38;;;16.00;82.40;;;;;;5089218;28;20118;-75